sensor_id;sensor_type;location;lat;lon;timestamp;temperature;humidity
34985;DHT22;21190;58.750;17.004;2023-11-19T00:00:18;-3.60;99.90
34985;DHT22;21190;58.750;17.004;2023-11-19T00:02:45;-3.50;99.90
34985;DHT22;21190;58.750;17.004;2023-11-19T00:05:14;-3.50;99.90
34985;DHT22;21190;58.750;17.004;2023-11-19T00:07:41;-3.40;99.90
34985;DHT22;21190;58.750;17.004;2023-11-19T00:10:10;-3.40;99.90
34985;DHT22;21190;58.750;17.004;2023-11-19T00:12:39;-3.50;99.90
34985;DHT22;21190;58.750;17.004;2023-11-19T00:15:07;-3.60;99.90
34985;DHT22;21190;58.750;17.004;2023-11-19T00:17:43;-3.50;99.90
34985;DHT22;21190;58.750;17.004;2023-11-19T00:20:12;-3.50;99.90
34985;DHT22;21190;58.750;17.004;2023-11-19T00:22:39;-3.50;99.90
34985;DHT22;21190;58.750;17.004;2023-11-19T00:25:15;-3.50;99.90
34985;DHT22;21190;58.750;17.004;2023-11-19T00:27:42;-3.40;99.90
34985;DHT22;21190;58.750;17.004;2023-11-19T00:30:13;-3.40;99.90
34985;DHT22;21190;58.750;17.004;2023-11-19T00:32:41;-3.40;99.90
34985;DHT22;21190;58.750;17.004;2023-11-19T00:35:09;-3.40;99.90
34985;DHT22;21190;58.750;17.004;2023-11-19T00:37:41;-3.50;99.90
34985;DHT22;21190;58.750;17.004;2023-11-19T00:40:10;-3.40;99.90
34985;DHT22;21190;58.750;17.004;2023-11-19T00:42:38;-3.40;99.90
34985;DHT22;21190;58.750;17.004;2023-11-19T00:45:05;-3.40;99.90
34985;DHT22;21190;58.750;17.004;2023-11-19T00:47:37;-3.40;99.90
34985;DHT22;21190;58.750;17.004;2023-11-19T00:50:04;-3.40;99.90
34985;DHT22;21190;58.750;17.004;2023-11-19T00:52:31;-3.40;99.90
34985;DHT22;21190;58.750;17.004;2023-11-19T00:54:58;-3.40;99.90
34985;DHT22;21190;58.750;17.004;2023-11-19T00:57:25;-3.30;99.90
34985;DHT22;21190;58.750;17.004;2023-11-19T00:59:53;-3.30;99.90
34985;DHT22;21190;58.750;17.004;2023-11-19T01:02:20;-3.30;99.90
34985;DHT22;21190;58.750;17.004;2023-11-19T01:04:47;-3.20;99.90
34985;DHT22;21190;58.750;17.004;2023-11-19T01:07:14;-3.20;99.90
34985;DHT22;21190;58.750;17.004;2023-11-19T01:09:42;-3.20;99.90
34985;DHT22;21190;58.750;17.004;2023-11-19T01:12:09;-3.20;99.90
34985;DHT22;21190;58.750;17.004;2023-11-19T01:14:37;-3.20;99.90
34985;DHT22;21190;58.750;17.004;2023-11-19T01:17:05;-3.20;99.90
34985;DHT22;21190;58.750;17.004;2023-11-19T01:19:32;-3.20;99.90
34985;DHT22;21190;58.750;17.004;2023-11-19T01:22:00;-3.20;99.90
34985;DHT22;21190;58.750;17.004;2023-11-19T01:24:27;-3.20;99.90
34985;DHT22;21190;58.750;17.004;2023-11-19T01:26:55;-3.20;99.90
34985;DHT22;21190;58.750;17.004;2023-11-19T01:29:24;-3.10;99.90
34985;DHT22;21190;58.750;17.004;2023-11-19T01:31:51;-3.10;99.90
34985;DHT22;21190;58.750;17.004;2023-11-19T01:34:18;-3.10;99.90
34985;DHT22;21190;58.750;17.004;2023-11-19T01:36:47;-3.10;99.90
34985;DHT22;21190;58.750;17.004;2023-11-19T01:39:16;-3.10;99.90
34985;DHT22;21190;58.750;17.004;2023-11-19T01:41:43;-3.10;99.90
34985;DHT22;21190;58.750;17.004;2023-11-19T01:44:10;-3.10;99.90
34985;DHT22;21190;58.750;17.004;2023-11-19T01:46:41;-3.10;99.90
34985;DHT22;21190;58.750;17.004;2023-11-19T01:49:08;-3.10;99.90
34985;DHT22;21190;58.750;17.004;2023-11-19T01:51:36;-3.10;99.90
34985;DHT22;21190;58.750;17.004;2023-11-19T01:54:03;-3.10;99.90
34985;DHT22;21190;58.750;17.004;2023-11-19T01:56:31;-3.10;99.90
34985;DHT22;21190;58.750;17.004;2023-11-19T01:58:58;-3.10;99.90
34985;DHT22;21190;58.750;17.004;2023-11-19T02:01:26;-3.10;99.90
34985;DHT22;21190;58.750;17.004;2023-11-19T02:03:53;-3.10;99.90
34985;DHT22;21190;58.750;17.004;2023-11-19T02:06:21;-3.00;99.90
34985;DHT22;21190;58.750;17.004;2023-11-19T02:08:49;-3.10;99.90
34985;DHT22;21190;58.750;17.004;2023-11-19T02:11:16;-3.10;99.90
34985;DHT22;21190;58.750;17.004;2023-11-19T02:13:43;-3.10;99.90
34985;DHT22;21190;58.750;17.004;2023-11-19T02:16:11;-3.10;99.90
34985;DHT22;21190;58.750;17.004;2023-11-19T02:18:38;-3.10;99.90
34985;DHT22;21190;58.750;17.004;2023-11-19T02:21:05;-3.10;99.90
34985;DHT22;21190;58.750;17.004;2023-11-19T02:23:33;-3.00;99.90
34985;DHT22;21190;58.750;17.004;2023-11-19T02:26:14;-3.00;99.90
34985;DHT22;21190;58.750;17.004;2023-11-19T02:28:44;-3.00;99.90
34985;DHT22;21190;58.750;17.004;2023-11-19T02:31:11;-3.00;99.90
34985;DHT22;21190;58.750;17.004;2023-11-19T02:33:39;-3.00;99.90
34985;DHT22;21190;58.750;17.004;2023-11-19T02:36:08;-2.90;99.90
34985;DHT22;21190;58.750;17.004;2023-11-19T02:38:35;-2.90;99.90
34985;DHT22;21190;58.750;17.004;2023-11-19T02:41:06;-3.00;99.90
34985;DHT22;21190;58.750;17.004;2023-11-19T02:43:33;-3.00;99.90
34985;DHT22;21190;58.750;17.004;2023-11-19T02:46:02;-3.00;99.90
34985;DHT22;21190;58.750;17.004;2023-11-19T02:48:41;-3.00;99.90
34985;DHT22;21190;58.750;17.004;2023-11-19T02:51:10;-3.00;99.90
34985;DHT22;21190;58.750;17.004;2023-11-19T02:53:37;-3.10;99.90
34985;DHT22;21190;58.750;17.004;2023-11-19T02:56:05;-3.10;99.90
34985;DHT22;21190;58.750;17.004;2023-11-19T02:58:53;-3.10;99.90
34985;DHT22;21190;58.750;17.004;2023-11-19T03:01:24;-3.10;99.90
34985;DHT22;21190;58.750;17.004;2023-11-19T03:03:58;-3.10;99.90
34985;DHT22;21190;58.750;17.004;2023-11-19T03:06:26;-3.10;99.90
34985;DHT22;21190;58.750;17.004;2023-11-19T03:08:55;-3.00;99.90
34985;DHT22;21190;58.750;17.004;2023-11-19T03:11:22;-3.00;99.90
34985;DHT22;21190;58.750;17.004;2023-11-19T03:13:49;-3.00;99.90
34985;DHT22;21190;58.750;17.004;2023-11-19T03:16:16;-3.00;99.90
34985;DHT22;21190;58.750;17.004;2023-11-19T03:18:44;-3.00;99.90
34985;DHT22;21190;58.750;17.004;2023-11-19T03:21:11;-3.00;99.90
34985;DHT22;21190;58.750;17.004;2023-11-19T03:23:39;-3.00;99.90
34985;DHT22;21190;58.750;17.004;2023-11-19T03:26:07;-3.10;99.90
34985;DHT22;21190;58.750;17.004;2023-11-19T03:28:34;-3.10;99.90
34985;DHT22;21190;58.750;17.004;2023-11-19T03:31:04;-3.10;99.90
34985;DHT22;21190;58.750;17.004;2023-11-19T03:33:35;-3.10;99.90
34985;DHT22;21190;58.750;17.004;2023-11-19T03:36:02;-3.10;99.90
34985;DHT22;21190;58.750;17.004;2023-11-19T03:38:30;-3.20;99.90
34985;DHT22;21190;58.750;17.004;2023-11-19T03:40:58;-3.10;99.90
34985;DHT22;21190;58.750;17.004;2023-11-19T03:43:25;-3.10;99.90
34985;DHT22;21190;58.750;17.004;2023-11-19T03:45:52;-3.00;99.90
34985;DHT22;21190;58.750;17.004;2023-11-19T03:48:20;-3.00;99.90
34985;DHT22;21190;58.750;17.004;2023-11-19T03:50:47;-3.00;99.90
34985;DHT22;21190;58.750;17.004;2023-11-19T03:53:14;-2.90;99.90
34985;DHT22;21190;58.750;17.004;2023-11-19T03:55:41;-2.90;99.90
34985;DHT22;21190;58.750;17.004;2023-11-19T03:58:08;-2.90;99.90
34985;DHT22;21190;58.750;17.004;2023-11-19T04:00:35;-2.90;99.90
34985;DHT22;21190;58.750;17.004;2023-11-19T04:03:02;-2.80;99.90
34985;DHT22;21190;58.750;17.004;2023-11-19T04:05:29;-2.80;99.90
34985;DHT22;21190;58.750;17.004;2023-11-19T04:07:56;-2.80;99.90
34985;DHT22;21190;58.750;17.004;2023-11-19T04:10:23;-2.80;99.90
34985;DHT22;21190;58.750;17.004;2023-11-19T04:12:50;-2.80;99.90
34985;DHT22;21190;58.750;17.004;2023-11-19T04:15:18;-2.90;99.90
34985;DHT22;21190;58.750;17.004;2023-11-19T04:17:44;-2.80;99.90
34985;DHT22;21190;58.750;17.004;2023-11-19T04:20:12;-2.80;99.90
34985;DHT22;21190;58.750;17.004;2023-11-19T04:22:41;-2.80;99.90
34985;DHT22;21190;58.750;17.004;2023-11-19T04:25:08;-2.80;99.90
34985;DHT22;21190;58.750;17.004;2023-11-19T04:27:36;-2.90;99.90
34985;DHT22;21190;58.750;17.004;2023-11-19T04:30:03;-2.90;99.90
34985;DHT22;21190;58.750;17.004;2023-11-19T04:32:32;-2.90;99.90
34985;DHT22;21190;58.750;17.004;2023-11-19T04:34:59;-2.90;99.90
34985;DHT22;21190;58.750;17.004;2023-11-19T04:37:26;-2.80;99.90
34985;DHT22;21190;58.750;17.004;2023-11-19T04:39:53;-2.90;99.90
34985;DHT22;21190;58.750;17.004;2023-11-19T04:42:22;-2.90;99.90
34985;DHT22;21190;58.750;17.004;2023-11-19T04:44:49;-2.90;99.90
34985;DHT22;21190;58.750;17.004;2023-11-19T04:47:16;-2.90;99.90
34985;DHT22;21190;58.750;17.004;2023-11-19T04:49:43;-2.90;99.90
34985;DHT22;21190;58.750;17.004;2023-11-19T04:52:11;-2.90;99.90
34985;DHT22;21190;58.750;17.004;2023-11-19T04:54:42;-2.90;99.90
34985;DHT22;21190;58.750;17.004;2023-11-19T04:57:12;-2.90;99.90
34985;DHT22;21190;58.750;17.004;2023-11-19T04:59:40;-2.90;99.90
34985;DHT22;21190;58.750;17.004;2023-11-19T05:02:08;-2.90;99.90
34985;DHT22;21190;58.750;17.004;2023-11-19T05:04:35;-2.90;99.90
34985;DHT22;21190;58.750;17.004;2023-11-19T05:07:04;-2.90;99.90
34985;DHT22;21190;58.750;17.004;2023-11-19T05:09:31;-3.00;99.90
34985;DHT22;21190;58.750;17.004;2023-11-19T05:11:58;-3.10;99.90
34985;DHT22;21190;58.750;17.004;2023-11-19T05:14:25;-3.10;99.90
34985;DHT22;21190;58.750;17.004;2023-11-19T05:16:52;-3.10;99.90
34985;DHT22;21190;58.750;17.004;2023-11-19T05:19:19;-3.10;99.90
34985;DHT22;21190;58.750;17.004;2023-11-19T05:21:46;-3.10;99.90
34985;DHT22;21190;58.750;17.004;2023-11-19T05:24:13;-3.00;99.90
34985;DHT22;21190;58.750;17.004;2023-11-19T05:26:41;-3.10;99.90
34985;DHT22;21190;58.750;17.004;2023-11-19T05:29:08;-3.00;99.90
34985;DHT22;21190;58.750;17.004;2023-11-19T05:31:35;-3.10;99.90
34985;DHT22;21190;58.750;17.004;2023-11-19T05:34:03;-3.20;99.90
34985;DHT22;21190;58.750;17.004;2023-11-19T05:36:31;-3.20;99.90
34985;DHT22;21190;58.750;17.004;2023-11-19T05:38:58;-3.30;99.90
34985;DHT22;21190;58.750;17.004;2023-11-19T05:41:25;-3.30;99.90
34985;DHT22;21190;58.750;17.004;2023-11-19T05:43:52;-3.30;99.90
34985;DHT22;21190;58.750;17.004;2023-11-19T05:46:19;-3.30;99.90
34985;DHT22;21190;58.750;17.004;2023-11-19T05:48:47;-3.40;99.90
34985;DHT22;21190;58.750;17.004;2023-11-19T05:51:15;-3.40;99.90
34985;DHT22;21190;58.750;17.004;2023-11-19T05:53:43;-3.40;99.90
34985;DHT22;21190;58.750;17.004;2023-11-19T05:56:13;-3.30;99.90
34985;DHT22;21190;58.750;17.004;2023-11-19T05:58:42;-3.40;99.90
34985;DHT22;21190;58.750;17.004;2023-11-19T06:01:11;-3.40;99.90
34985;DHT22;21190;58.750;17.004;2023-11-19T06:03:38;-3.40;99.90
34985;DHT22;21190;58.750;17.004;2023-11-19T06:06:06;-3.30;99.90
34985;DHT22;21190;58.750;17.004;2023-11-19T06:08:33;-3.30;99.90
34985;DHT22;21190;58.750;17.004;2023-11-19T06:11:00;-3.30;99.90
34985;DHT22;21190;58.750;17.004;2023-11-19T06:13:28;-3.30;99.90
34985;DHT22;21190;58.750;17.004;2023-11-19T06:15:58;-3.30;99.90
34985;DHT22;21190;58.750;17.004;2023-11-19T06:18:25;-3.30;99.90
34985;DHT22;21190;58.750;17.004;2023-11-19T06:20:52;-3.30;99.90
34985;DHT22;21190;58.750;17.004;2023-11-19T06:23:19;-3.30;99.90
34985;DHT22;21190;58.750;17.004;2023-11-19T06:25:46;-3.30;99.90
34985;DHT22;21190;58.750;17.004;2023-11-19T06:28:16;-3.30;99.90
34985;DHT22;21190;58.750;17.004;2023-11-19T06:30:43;-3.30;99.90
34985;DHT22;21190;58.750;17.004;2023-11-19T06:33:14;-3.30;99.90
34985;DHT22;21190;58.750;17.004;2023-11-19T06:35:41;-3.30;99.90
34985;DHT22;21190;58.750;17.004;2023-11-19T06:38:08;-3.30;99.90
34985;DHT22;21190;58.750;17.004;2023-11-19T06:40:35;-3.30;99.90
34985;DHT22;21190;58.750;17.004;2023-11-19T06:43:03;-3.30;99.90
34985;DHT22;21190;58.750;17.004;2023-11-19T06:45:31;-3.30;99.90
34985;DHT22;21190;58.750;17.004;2023-11-19T06:48:01;-3.30;99.90
34985;DHT22;21190;58.750;17.004;2023-11-19T06:50:33;-3.20;99.90
34985;DHT22;21190;58.750;17.004;2023-11-19T06:53:00;-3.20;99.90
34985;DHT22;21190;58.750;17.004;2023-11-19T06:55:27;-3.10;99.90
34985;DHT22;21190;58.750;17.004;2023-11-19T06:57:54;-3.00;99.90
34985;DHT22;21190;58.750;17.004;2023-11-19T07:00:21;-3.00;99.90
34985;DHT22;21190;58.750;17.004;2023-11-19T07:02:48;-2.90;99.90
34985;DHT22;21190;58.750;17.004;2023-11-19T07:05:17;-2.90;99.90
34985;DHT22;21190;58.750;17.004;2023-11-19T07:07:44;-2.90;99.90
34985;DHT22;21190;58.750;17.004;2023-11-19T07:10:13;-2.80;99.90
34985;DHT22;21190;58.750;17.004;2023-11-19T07:12:40;-2.80;99.90
34985;DHT22;21190;58.750;17.004;2023-11-19T07:15:09;-2.80;99.90
34985;DHT22;21190;58.750;17.004;2023-11-19T07:17:36;-2.80;99.90
34985;DHT22;21190;58.750;17.004;2023-11-19T07:20:03;-2.70;99.90
34985;DHT22;21190;58.750;17.004;2023-11-19T07:22:31;-2.80;99.90
34985;DHT22;21190;58.750;17.004;2023-11-19T07:24:58;-2.80;99.90
34985;DHT22;21190;58.750;17.004;2023-11-19T07:27:25;-2.70;99.90
34985;DHT22;21190;58.750;17.004;2023-11-19T07:29:52;-2.60;99.90
34985;DHT22;21190;58.750;17.004;2023-11-19T07:32:19;-2.50;99.90
34985;DHT22;21190;58.750;17.004;2023-11-19T07:34:46;-2.50;99.90
34985;DHT22;21190;58.750;17.004;2023-11-19T07:37:13;-2.40;99.90
34985;DHT22;21190;58.750;17.004;2023-11-19T07:39:40;-2.40;99.90
34985;DHT22;21190;58.750;17.004;2023-11-19T07:42:08;-2.40;99.90
34985;DHT22;21190;58.750;17.004;2023-11-19T07:44:36;-2.40;99.90
34985;DHT22;21190;58.750;17.004;2023-11-19T07:47:03;-2.40;99.90
34985;DHT22;21190;58.750;17.004;2023-11-19T07:49:31;-2.30;99.90
34985;DHT22;21190;58.750;17.004;2023-11-19T07:51:58;-2.30;99.90
34985;DHT22;21190;58.750;17.004;2023-11-19T07:54:25;-2.30;99.90
34985;DHT22;21190;58.750;17.004;2023-11-19T07:56:52;-2.10;99.90
34985;DHT22;21190;58.750;17.004;2023-11-19T07:59:19;-2.10;99.90
34985;DHT22;21190;58.750;17.004;2023-11-19T08:01:47;-2.10;99.90
34985;DHT22;21190;58.750;17.004;2023-11-19T08:04:14;-2.10;99.90
34985;DHT22;21190;58.750;17.004;2023-11-19T08:06:42;-2.00;99.90
34985;DHT22;21190;58.750;17.004;2023-11-19T08:09:09;-2.00;99.90
34985;DHT22;21190;58.750;17.004;2023-11-19T08:11:41;-1.80;99.90
34985;DHT22;21190;58.750;17.004;2023-11-19T08:14:08;-1.90;99.90
34985;DHT22;21190;58.750;17.004;2023-11-19T08:16:36;-1.80;99.90
34985;DHT22;21190;58.750;17.004;2023-11-19T08:19:04;-1.80;99.90
34985;DHT22;21190;58.750;17.004;2023-11-19T08:21:31;-1.80;99.90
34985;DHT22;21190;58.750;17.004;2023-11-19T08:23:59;-1.80;99.90
34985;DHT22;21190;58.750;17.004;2023-11-19T08:26:26;-1.70;99.90
34985;DHT22;21190;58.750;17.004;2023-11-19T08:28:53;-1.70;99.90
34985;DHT22;21190;58.750;17.004;2023-11-19T08:31:20;-1.70;99.90
34985;DHT22;21190;58.750;17.004;2023-11-19T08:33:47;-1.70;99.90
34985;DHT22;21190;58.750;17.004;2023-11-19T08:36:17;-1.60;99.90
34985;DHT22;21190;58.750;17.004;2023-11-19T08:38:44;-1.60;99.90
34985;DHT22;21190;58.750;17.004;2023-11-19T08:41:11;-1.50;99.90
34985;DHT22;21190;58.750;17.004;2023-11-19T08:43:38;-1.50;99.90
34985;DHT22;21190;58.750;17.004;2023-11-19T08:46:11;-1.60;99.90
34985;DHT22;21190;58.750;17.004;2023-11-19T08:48:39;-1.60;99.90
34985;DHT22;21190;58.750;17.004;2023-11-19T08:51:06;-1.50;99.90
34985;DHT22;21190;58.750;17.004;2023-11-19T08:53:33;-1.50;99.90
34985;DHT22;21190;58.750;17.004;2023-11-19T08:56:01;-1.40;99.90
34985;DHT22;21190;58.750;17.004;2023-11-19T08:58:30;-1.50;99.90
34985;DHT22;21190;58.750;17.004;2023-11-19T09:00:57;-1.50;99.90
34985;DHT22;21190;58.750;17.004;2023-11-19T09:03:25;-1.50;99.90
34985;DHT22;21190;58.750;17.004;2023-11-19T09:05:57;-1.50;99.90
34985;DHT22;21190;58.750;17.004;2023-11-19T09:08:24;-1.50;99.90
34985;DHT22;21190;58.750;17.004;2023-11-19T09:10:51;-1.50;99.90
34985;DHT22;21190;58.750;17.004;2023-11-19T09:13:18;-1.50;99.90
34985;DHT22;21190;58.750;17.004;2023-11-19T09:15:45;-1.50;99.90
34985;DHT22;21190;58.750;17.004;2023-11-19T09:18:12;-1.40;99.90
34985;DHT22;21190;58.750;17.004;2023-11-19T09:20:39;-1.40;99.90
34985;DHT22;21190;58.750;17.004;2023-11-19T09:23:06;-1.40;99.90
34985;DHT22;21190;58.750;17.004;2023-11-19T09:25:35;-1.40;99.90
34985;DHT22;21190;58.750;17.004;2023-11-19T09:28:05;-1.40;99.90
34985;DHT22;21190;58.750;17.004;2023-11-19T09:30:32;-1.40;99.90
34985;DHT22;21190;58.750;17.004;2023-11-19T09:33:01;-1.30;99.90
34985;DHT22;21190;58.750;17.004;2023-11-19T09:35:28;-1.30;99.90
34985;DHT22;21190;58.750;17.004;2023-11-19T09:37:55;-1.30;99.90
34985;DHT22;21190;58.750;17.004;2023-11-19T09:40:22;-1.30;99.90
34985;DHT22;21190;58.750;17.004;2023-11-19T09:42:49;-1.20;99.90
34985;DHT22;21190;58.750;17.004;2023-11-19T09:45:17;-1.20;99.90
34985;DHT22;21190;58.750;17.004;2023-11-19T09:47:47;-1.20;99.90
34985;DHT22;21190;58.750;17.004;2023-11-19T09:50:17;-1.10;99.90
34985;DHT22;21190;58.750;17.004;2023-11-19T09:52:46;-1.00;99.90
34985;DHT22;21190;58.750;17.004;2023-11-19T09:55:14;-1.00;99.90
34985;DHT22;21190;58.750;17.004;2023-11-19T09:57:41;-1.00;99.90
34985;DHT22;21190;58.750;17.004;2023-11-19T10:00:09;-0.90;99.90
34985;DHT22;21190;58.750;17.004;2023-11-19T10:02:39;-0.90;99.90
34985;DHT22;21190;58.750;17.004;2023-11-19T10:05:07;-0.80;99.90
34985;DHT22;21190;58.750;17.004;2023-11-19T10:07:34;-0.80;99.90
34985;DHT22;21190;58.750;17.004;2023-11-19T10:10:05;-0.70;99.90
34985;DHT22;21190;58.750;17.004;2023-11-19T10:12:32;-0.70;99.90
34985;DHT22;21190;58.750;17.004;2023-11-19T10:14:59;-0.70;99.90
34985;DHT22;21190;58.750;17.004;2023-11-19T10:17:34;-0.60;99.90
34985;DHT22;21190;58.750;17.004;2023-11-19T10:20:01;-0.60;99.90
34985;DHT22;21190;58.750;17.004;2023-11-19T10:22:29;-0.60;99.90
34985;DHT22;21190;58.750;17.004;2023-11-19T10:24:56;-0.60;99.90
34985;DHT22;21190;58.750;17.004;2023-11-19T10:27:24;-0.60;99.90
34985;DHT22;21190;58.750;17.004;2023-11-19T10:29:52;-0.60;99.90
34985;DHT22;21190;58.750;17.004;2023-11-19T10:32:19;-0.50;99.90
34985;DHT22;21190;58.750;17.004;2023-11-19T10:35:04;-0.50;99.90
34985;DHT22;21190;58.750;17.004;2023-11-19T10:37:32;-0.50;99.90
34985;DHT22;21190;58.750;17.004;2023-11-19T10:40:02;-0.50;99.90
34985;DHT22;21190;58.750;17.004;2023-11-19T10:42:32;-0.50;99.90
34985;DHT22;21190;58.750;17.004;2023-11-19T10:44:59;-0.40;99.90
34985;DHT22;21190;58.750;17.004;2023-11-19T10:47:26;-0.40;99.90
34985;DHT22;21190;58.750;17.004;2023-11-19T10:49:55;-0.40;99.90
34985;DHT22;21190;58.750;17.004;2023-11-19T10:52:23;-0.40;99.90
34985;DHT22;21190;58.750;17.004;2023-11-19T10:54:51;-0.40;99.90
34985;DHT22;21190;58.750;17.004;2023-11-19T10:57:21;-0.40;99.90
34985;DHT22;21190;58.750;17.004;2023-11-19T10:59:52;-0.40;99.90
34985;DHT22;21190;58.750;17.004;2023-11-19T11:02:24;-0.30;99.90
34985;DHT22;21190;58.750;17.004;2023-11-19T11:04:54;-0.40;99.90
34985;DHT22;21190;58.750;17.004;2023-11-19T11:07:22;-0.40;99.90
34985;DHT22;21190;58.750;17.004;2023-11-19T11:10:02;-0.30;99.90
34985;DHT22;21190;58.750;17.004;2023-11-19T11:12:36;-0.30;99.90
34985;DHT22;21190;58.750;17.004;2023-11-19T11:15:04;-0.30;99.90
34985;DHT22;21190;58.750;17.004;2023-11-19T11:17:33;-0.30;99.90
34985;DHT22;21190;58.750;17.004;2023-11-19T11:20:01;-0.30;99.90
34985;DHT22;21190;58.750;17.004;2023-11-19T11:22:37;-0.30;99.90
34985;DHT22;21190;58.750;17.004;2023-11-19T11:25:23;-0.40;99.90
34985;DHT22;21190;58.750;17.004;2023-11-19T11:28:11;-0.40;99.90
34985;DHT22;21190;58.750;17.004;2023-11-19T11:30:46;-0.40;99.90
34985;DHT22;21190;58.750;17.004;2023-11-19T11:33:28;-0.30;99.90
34985;DHT22;21190;58.750;17.004;2023-11-19T11:38:37;-0.30;99.90
34985;DHT22;21190;58.750;17.004;2023-11-19T11:41:22;-0.30;99.90
34985;DHT22;21190;58.750;17.004;2023-11-19T11:43:55;-0.20;99.90
34985;DHT22;21190;58.750;17.004;2023-11-19T11:49:08;-0.30;99.90
34985;DHT22;21190;58.750;17.004;2023-11-19T11:57:09;-0.40;99.90
34985;DHT22;21190;58.750;17.004;2023-11-19T12:02:08;-0.30;99.90
34985;DHT22;21190;58.750;17.004;2023-11-19T12:04:36;-0.30;99.90
34985;DHT22;21190;58.750;17.004;2023-11-19T12:07:11;-0.30;99.90
34985;DHT22;21190;58.750;17.004;2023-11-19T12:09:42;-0.20;99.90
34985;DHT22;21190;58.750;17.004;2023-11-19T12:15:01;-0.20;99.90
34985;DHT22;21190;58.750;17.004;2023-11-19T12:20:02;-0.10;99.90
34985;DHT22;21190;58.750;17.004;2023-11-19T12:22:30;-0.10;99.90
34985;DHT22;21190;58.750;17.004;2023-11-19T12:24:57;-0.10;99.90
34985;DHT22;21190;58.750;17.004;2023-11-19T12:27:24;-0.10;99.90
34985;DHT22;21190;58.750;17.004;2023-11-19T12:29:53;-0.10;99.90
34985;DHT22;21190;58.750;17.004;2023-11-19T12:32:21;-0.10;99.90
34985;DHT22;21190;58.750;17.004;2023-11-19T12:34:48;0.00;99.90
34985;DHT22;21190;58.750;17.004;2023-11-19T12:37:15;0.00;99.90
34985;DHT22;21190;58.750;17.004;2023-11-19T12:39:42;0.00;99.90
34985;DHT22;21190;58.750;17.004;2023-11-19T12:42:10;0.00;99.90
34985;DHT22;21190;58.750;17.004;2023-11-19T12:44:38;0.10;99.90
34985;DHT22;21190;58.750;17.004;2023-11-19T12:47:06;0.10;99.90
34985;DHT22;21190;58.750;17.004;2023-11-19T12:49:34;0.10;99.90
34985;DHT22;21190;58.750;17.004;2023-11-19T12:52:01;0.00;99.90
34985;DHT22;21190;58.750;17.004;2023-11-19T12:54:46;0.00;99.90
34985;DHT22;21190;58.750;17.004;2023-11-19T12:57:13;0.00;99.90
34985;DHT22;21190;58.750;17.004;2023-11-19T12:59:41;0.00;99.90
34985;DHT22;21190;58.750;17.004;2023-11-19T13:02:08;0.00;99.90
34985;DHT22;21190;58.750;17.004;2023-11-19T13:04:35;0.00;99.90
34985;DHT22;21190;58.750;17.004;2023-11-19T13:07:02;0.10;99.90
34985;DHT22;21190;58.750;17.004;2023-11-19T13:09:33;0.20;99.90
34985;DHT22;21190;58.750;17.004;2023-11-19T13:12:13;0.20;99.90
34985;DHT22;21190;58.750;17.004;2023-11-19T13:14:41;0.20;99.90
34985;DHT22;21190;58.750;17.004;2023-11-19T13:17:12;0.20;99.90
34985;DHT22;21190;58.750;17.004;2023-11-19T13:19:39;0.30;99.90
34985;DHT22;21190;58.750;17.004;2023-11-19T13:22:06;0.30;99.90
34985;DHT22;21190;58.750;17.004;2023-11-19T13:24:33;0.40;99.90
34985;DHT22;21190;58.750;17.004;2023-11-19T13:27:00;0.40;99.90
34985;DHT22;21190;58.750;17.004;2023-11-19T13:29:27;0.50;99.90
34985;DHT22;21190;58.750;17.004;2023-11-19T13:31:57;0.50;99.90
34985;DHT22;21190;58.750;17.004;2023-11-19T13:34:25;0.50;99.90
34985;DHT22;21190;58.750;17.004;2023-11-19T13:36:52;0.50;99.90
34985;DHT22;21190;58.750;17.004;2023-11-19T13:39:18;0.60;99.90
34985;DHT22;21190;58.750;17.004;2023-11-19T13:41:50;0.70;99.90
34985;DHT22;21190;58.750;17.004;2023-11-19T13:44:17;0.70;99.90
34985;DHT22;21190;58.750;17.004;2023-11-19T13:46:45;0.70;99.90
34985;DHT22;21190;58.750;17.004;2023-11-19T13:49:14;0.70;99.90
34985;DHT22;21190;58.750;17.004;2023-11-19T13:51:42;0.70;99.90
34985;DHT22;21190;58.750;17.004;2023-11-19T13:54:09;0.70;99.90
34985;DHT22;21190;58.750;17.004;2023-11-19T13:56:36;0.70;99.90
34985;DHT22;21190;58.750;17.004;2023-11-19T13:59:03;0.70;99.90
34985;DHT22;21190;58.750;17.004;2023-11-19T14:01:30;0.70;99.90
34985;DHT22;21190;58.750;17.004;2023-11-19T14:03:57;0.70;99.90
34985;DHT22;21190;58.750;17.004;2023-11-19T14:06:24;0.70;99.90
34985;DHT22;21190;58.750;17.004;2023-11-19T14:08:51;0.80;99.90
34985;DHT22;21190;58.750;17.004;2023-11-19T14:11:18;0.70;99.90
34985;DHT22;21190;58.750;17.004;2023-11-19T14:13:45;0.70;99.90
34985;DHT22;21190;58.750;17.004;2023-11-19T14:16:13;0.60;99.90
34985;DHT22;21190;58.750;17.004;2023-11-19T14:18:41;0.60;99.90
34985;DHT22;21190;58.750;17.004;2023-11-19T14:21:08;0.50;99.90
34985;DHT22;21190;58.750;17.004;2023-11-19T14:23:35;0.50;99.90
34985;DHT22;21190;58.750;17.004;2023-11-19T14:26:02;0.50;99.90
34985;DHT22;21190;58.750;17.004;2023-11-19T14:28:29;0.50;99.90
34985;DHT22;21190;58.750;17.004;2023-11-19T14:30:58;0.50;99.90
34985;DHT22;21190;58.750;17.004;2023-11-19T14:33:25;0.50;99.90
34985;DHT22;21190;58.750;17.004;2023-11-19T14:35:52;0.60;99.90
34985;DHT22;21190;58.750;17.004;2023-11-19T14:38:19;0.50;99.90
34985;DHT22;21190;58.750;17.004;2023-11-19T14:40:46;0.50;99.90
34985;DHT22;21190;58.750;17.004;2023-11-19T14:43:14;0.50;99.90
34985;DHT22;21190;58.750;17.004;2023-11-19T14:45:42;0.50;99.90
34985;DHT22;21190;58.750;17.004;2023-11-19T14:48:16;0.50;99.90
34985;DHT22;21190;58.750;17.004;2023-11-19T14:50:45;0.50;99.90
34985;DHT22;21190;58.750;17.004;2023-11-19T14:53:11;0.50;99.90
34985;DHT22;21190;58.750;17.004;2023-11-19T14:55:38;0.50;99.90
34985;DHT22;21190;58.750;17.004;2023-11-19T14:58:06;0.50;99.90
34985;DHT22;21190;58.750;17.004;2023-11-19T15:00:37;0.50;99.90
34985;DHT22;21190;58.750;17.004;2023-11-19T15:03:04;0.40;99.90
34985;DHT22;21190;58.750;17.004;2023-11-19T15:05:33;0.50;99.90
34985;DHT22;21190;58.750;17.004;2023-11-19T15:08:01;0.50;99.90
34985;DHT22;21190;58.750;17.004;2023-11-19T15:10:29;0.50;99.90
34985;DHT22;21190;58.750;17.004;2023-11-19T15:12:56;0.50;99.90
34985;DHT22;21190;58.750;17.004;2023-11-19T15:15:24;0.40;99.90
34985;DHT22;21190;58.750;17.004;2023-11-19T15:17:54;0.40;99.90
34985;DHT22;21190;58.750;17.004;2023-11-19T15:20:21;0.40;99.90
34985;DHT22;21190;58.750;17.004;2023-11-19T15:22:48;0.40;99.90
34985;DHT22;21190;58.750;17.004;2023-11-19T15:25:16;0.30;99.90
34985;DHT22;21190;58.750;17.004;2023-11-19T15:27:43;0.30;99.90
34985;DHT22;21190;58.750;17.004;2023-11-19T15:30:11;0.40;99.90
34985;DHT22;21190;58.750;17.004;2023-11-19T15:32:38;0.40;99.90
34985;DHT22;21190;58.750;17.004;2023-11-19T15:35:06;0.40;99.90
34985;DHT22;21190;58.750;17.004;2023-11-19T15:37:34;0.40;99.90
34985;DHT22;21190;58.750;17.004;2023-11-19T15:40:02;0.40;99.90
34985;DHT22;21190;58.750;17.004;2023-11-19T15:42:32;0.40;99.90
34985;DHT22;21190;58.750;17.004;2023-11-19T15:44:59;0.50;99.90